Time;durP1;ratioP1;P1;durP2;ratioP2;P2;SDS_P1;SDS_P2;PMS_P1;PMS_P2;Temp;Humidity;BMP_temperature;BMP_pressure;BME280_temperature;BME280_humidity;BME280_pressure;Samples;Min_cycle;Max_cycle;Signal;HPM_P1;HPM_P2
2022/02/15 00:00:38;;;;;;;;;;;;;;;12.92;60.12;101946.28;2072032;28;20296;-71
2022/02/15 00:01:40;;;;;;;;;;;;;;;12.93;60.16;101941.00;2073603;28;19921;-72
2022/02/15 00:02:43;;;;;;;;;;;;;;;12.94;60.26;101939.25;2073451;28;20259;-72
2022/02/15 00:03:44;;;;;;;;;;;;;;;12.94;60.44;101941.91;2073613;28;19921;-72
2022/02/15 00:04:46;;;;;;;;;;;;;;;12.95;60.32;101941.94;2065077;28;20262;-71
2022/02/15 00:05:49;;;;;;;;;;;;;;;12.96;60.51;101937.53;2054661;28;19922;-72
2022/02/15 00:06:51;;;;;;;;;;;;;;;12.97;60.41;101944.63;2057299;28;20350;-72
2022/02/15 00:07:53;;;;;;;;;;;;;;;12.99;60.55;101942.94;2065398;28;20364;-72
2022/02/15 00:08:54;;;;;;;;;;;;;;;12.99;60.52;101940.28;2065371;28;20373;-71
2022/02/15 00:09:57;;;;;;;;;;;;;;;12.99;60.59;101940.28;2065446;28;19922;-72
2022/02/15 00:10:58;;;;;;;;;;;;;;;12.99;60.68;101935.88;2064682;28;19925;-71
2022/02/15 00:12:00;;;;;;;;;;;;;;;12.99;60.66;101938.53;2065318;28;19981;-71
2022/02/15 00:13:03;;;;;;;;;;;;;;;13.00;60.75;101939.38;2066178;28;20311;-71
2022/02/15 00:14:05;;;;;;;;;;;;;;;12.99;60.88;101933.22;2065459;28;20016;-71
2022/02/15 00:15:07;;;;;;;;;;;;;;;12.97;61.01;101932.28;2065730;28;19987;-72
2022/02/15 00:16:10;;;;;;;;;;;;;;;12.97;61.21;101934.94;2073556;28;20262;-72
2022/02/15 00:17:11;;;;;;;;;;;;;;;12.97;61.24;101939.34;2065433;28;19937;-71
2022/02/15 00:18:13;;;;;;;;;;;;;;;12.97;61.17;101944.63;2057639;28;19964;-70
2022/02/15 00:19:14;;;;;;;;;;;;;;;12.95;61.41;101941.94;2057292;28;19922;-72
2022/02/15 00:20:16;;;;;;;;;;;;;;;12.95;61.39;101943.69;2065403;28;19921;-71
2022/02/15 00:21:20;;;;;;;;;;;;;;;12.95;61.36;101935.75;2057610;28;19964;-71
2022/02/15 00:22:21;;;;;;;;;;;;;;;12.94;61.48;101936.59;2065139;28;19922;-72
2022/02/15 00:23:24;;;;;;;;;;;;;;;12.93;61.51;101934.84;2065069;28;19997;-72
2022/02/15 00:24:28;;;;;;;;;;;;;;;12.91;61.57;101940.09;2057642;28;20022;-71
2022/02/15 00:25:31;;;;;;;;;;;;;;;12.90;61.46;101935.63;2060368;28;19928;-72
2022/02/15 00:26:33;;;;;;;;;;;;;;;12.89;61.56;101927.63;2064186;28;20306;-71
2022/02/15 00:27:35;;;;;;;;;;;;;;;12.87;61.60;101930.25;2056748;28;20453;-71
2022/02/15 00:28:37;;;;;;;;;;;;;;;12.86;61.47;101935.53;2065404;28;19960;-71
2022/02/15 00:29:40;;;;;;;;;;;;;;;12.85;61.50;101939.03;2065144;28;19926;-72
2022/02/15 00:30:42;;;;;;;;;;;;;;;12.82;61.52;101933.63;2065769;28;19922;-72
2022/02/15 00:31:44;;;;;;;;;;;;;;;12.81;61.52;101938.03;2064960;28;19922;-72
2022/02/15 00:32:46;;;;;;;;;;;;;;;12.81;61.58;101939.78;2070876;28;20384;-71
2022/02/15 00:33:48;;;;;;;;;;;;;;;12.80;61.50;101940.69;2081966;28;19968;-71
2022/02/15 00:34:49;;;;;;;;;;;;;;;12.81;61.50;101947.75;2081707;28;20362;-71
2022/02/15 00:35:51;;;;;;;;;;;;;;;12.80;61.48;101936.25;2081192;28;20398;-72
2022/02/15 00:36:56;;;;;;;;;;;;;;;12.78;61.70;101938.88;2072911;28;19922;-71
2022/02/15 00:37:59;;;;;;;;;;;;;;;12.77;61.68;101936.19;2065343;28;19977;-71
2022/02/15 00:39:00;;;;;;;;;;;;;;;12.75;61.74;101932.59;2065636;28;19922;-70
2022/02/15 00:40:03;;;;;;;;;;;;;;;12.73;61.67;101935.19;2065102;28;20374;-72
2022/02/15 00:41:07;;;;;;;;;;;;;;;12.71;61.67;101936.94;2065454;28;19951;-72
2022/02/15 00:42:11;;;;;;;;;;;;;;;12.71;61.79;101938.69;2064841;28;20370;-72
2022/02/15 00:43:13;;;;;;;;;;;;;;;12.69;61.76;101943.94;2065674;28;19969;-71
2022/02/15 00:44:16;;;;;;;;;;;;;;;12.68;61.75;101941.25;2064903;28;19928;-72
2022/02/15 00:45:17;;;;;;;;;;;;;;;12.67;61.75;101936.78;2073163;28;20428;-71
2022/02/15 00:46:20;;;;;;;;;;;;;;;12.66;61.87;101941.22;2072263;28;19929;-72
2022/02/15 00:47:21;;;;;;;;;;;;;;;12.66;61.76;101935.03;2056580;28;19929;-72
2022/02/15 00:48:24;;;;;;;;;;;;;;;12.67;61.74;101936.78;2072757;28;19925;-72
2022/02/15 00:49:25;;;;;;;;;;;;;;;12.68;61.71;101935.94;2073158;28;19928;-71
2022/02/15 00:50:27;;;;;;;;;;;;;;;12.67;61.79;101937.69;2065049;28;19952;-72
2022/02/15 00:51:28;;;;;;;;;;;;;;;12.66;61.72;101935.94;2064781;28;20412;-72
2022/02/15 00:52:32;;;;;;;;;;;;;;;12.65;61.70;101928.81;2065019;28;19969;-72
2022/02/15 00:53:34;;;;;;;;;;;;;;;12.65;61.74;101936.78;2065016;28;19922;-72
2022/02/15 00:54:37;;;;;;;;;;;;;;;12.65;61.70;101941.19;2064572;28;20370;-71
2022/02/15 00:55:38;;;;;;;;;;;;;;;12.64;61.84;101937.63;2072902;28;19921;-72
2022/02/15 00:56:40;;;;;;;;;;;;;;;12.65;61.76;101939.41;2072872;28;19971;-72
2022/02/15 00:57:41;;;;;;;;;;;;;;;12.67;61.94;101939.44;2064947;28;20394;-72
2022/02/15 00:58:43;;;;;;;;;;;;;;;12.66;61.73;101927.97;2068489;28;20303;-72
2022/02/15 00:59:45;;;;;;;;;;;;;;;12.67;61.70;101932.38;2073292;28;19925;-71
2022/02/15 01:00:47;;;;;;;;;;;;;;;12.68;61.62;101935.94;2064650;28;19927;-71
2022/02/15 01:01:48;;;;;;;;;;;;;;;12.67;61.72;101926.19;2073085;28;19921;-71
2022/02/15 01:02:51;;;;;;;;;;;;;;;12.67;61.75;101931.50;2072920;28;19925;-72
2022/02/15 01:03:52;;;;;;;;;;;;;;;12.68;61.91;101930.63;2073259;28;20006;-72
2022/02/15 01:04:54;;;;;;;;;;;;;;;12.67;61.88;101929.75;2072610;28;19929;-71
2022/02/15 01:05:57;;;;;;;;;;;;;;;12.68;61.81;101931.53;2065030;28;19971;-71
2022/02/15 01:06:59;;;;;;;;;;;;;;;12.67;61.82;101921.78;2065255;28;19930;-71
2022/02/15 01:08:04;;;;;;;;;;;;;;;12.67;61.79;101927.09;2072675;28;19921;-71
2022/02/15 01:09:10;;;;;;;;;;;;;;;12.68;61.83;101928.00;2065059;28;19925;-71
2022/02/15 01:10:16;;;;;;;;;;;;;;;12.68;61.94;101922.69;2072391;28;20317;-72
2022/02/15 01:11:19;;;;;;;;;;;;;;;12.66;61.88;101921.78;2072942;28;19925;-71
2022/02/15 01:12:21;;;;;;;;;;;;;;;12.64;62.05;101918.19;2065276;28;19922;-71
2022/02/15 01:13:23;;;;;;;;;;;;;;;12.63;62.02;101919.94;2066635;28;19930;-71
2022/02/15 01:14:24;;;;;;;;;;;;;;;12.63;62.02;101925.22;2065016;28;20371;-71
2022/02/15 01:15:26;;;;;;;;;;;;;;;12.62;61.96;101919.88;2065061;28;19928;-71
2022/02/15 01:16:27;;;;;;;;;;;;;;;12.61;61.95;101916.34;2073206;28;19929;-72
2022/02/15 01:17:30;;;;;;;;;;;;;;;12.59;61.92;101915.44;2081573;28;19921;-72
2022/02/15 01:18:31;;;;;;;;;;;;;;;12.57;62.04;101909.19;2081395;28;19921;-72
2022/02/15 01:19:33;;;;;;;;;;;;;;;12.57;62.06;101916.22;2073114;28;20435;-72
2022/02/15 01:20:35;;;;;;;;;;;;;;;12.54;62.04;101911.72;2065145;28;19922;-72
2022/02/15 01:21:37;;;;;;;;;;;;;;;12.54;62.09;101911.72;2073343;28;19922;-72
2022/02/15 01:22:39;;;;;;;;;;;;;;;12.54;61.99;101910.84;2072858;28;19922;-72
2022/02/15 01:23:43;;;;;;;;;;;;;;;12.52;62.00;101908.19;2073089;28;19953;-72
2022/02/15 01:24:44;;;;;;;;;;;;;;;12.51;61.94;101909.03;2073047;28;19949;-72
2022/02/15 01:25:46;;;;;;;;;;;;;;;12.50;61.92;101906.31;2072833;28;20000;-73
2022/02/15 01:26:47;;;;;;;;;;;;;;;12.46;61.94;101902.72;2064932;28;19922;-72
2022/02/15 01:27:50;;;;;;;;;;;;;;;12.46;62.08;101907.13;2057277;28;20401;-72
2022/02/15 01:28:51;;;;;;;;;;;;;;;12.42;62.08;101903.47;2056868;28;20338;-71
2022/02/15 01:29:54;;;;;;;;;;;;;;;12.39;62.17;101903.41;2056808;28;20298;-72
2022/02/15 01:30:57;;;;;;;;;;;;;;;12.38;62.18;101898.97;2056954;28;19922;-71
2022/02/15 01:31:58;;;;;;;;;;;;;;;12.36;62.10;101905.97;2065273;28;19925;-71
2022/02/15 01:33:00;;;;;;;;;;;;;;;12.34;62.06;101905.91;2073081;28;19921;-72
2022/02/15 01:34:01;;;;;;;;;;;;;;;12.33;62.07;101908.53;2056612;28;19975;-72
2022/02/15 01:35:04;;;;;;;;;;;;;;;12.32;62.08;101907.66;2056973;28;19922;-72
2022/02/15 01:36:05;;;;;;;;;;;;;;;12.31;62.08;101905.84;2064945;28;19967;-72
2022/02/15 01:37:08;;;;;;;;;;;;;;;12.29;62.06;101911.94;2064572;28;20414;-72
2022/02/15 01:38:09;;;;;;;;;;;;;;;12.28;62.04;101910.16;2056753;28;20433;-73
2022/02/15 01:39:12;;;;;;;;;;;;;;;12.25;61.99;101908.34;2055328;28;19976;-72
2022/02/15 01:40:13;;;;;;;;;;;;;;;12.24;61.94;101895.06;2057031;28;20267;-71
2022/02/15 01:41:16;;;;;;;;;;;;;;;12.24;61.81;101897.69;2064631;28;20360;-72
2022/02/15 01:42:18;;;;;;;;;;;;;;;12.22;61.89;101902.94;2064748;28;20258;-71
2022/02/15 01:43:20;;;;;;;;;;;;;;;12.22;61.88;101904.69;2064757;28;20108;-71
2022/02/15 01:44:43;;;;;;;;;;;;;;;12.20;61.87;101899.38;2064358;28;20397;-72
2022/02/15 01:45:44;;;;;;;;;;;;;;;12.18;61.85;101905.47;2059464;28;20309;-71
2022/02/15 01:46:47;;;;;;;;;;;;;;;12.17;61.91;101896.63;2064742;28;19930;-71
2022/02/15 01:47:48;;;;;;;;;;;;;;;12.18;61.87;101902.81;2056466;28;20282;-71
2022/02/15 01:48:52;;;;;;;;;;;;;;;12.18;61.79;101897.53;2056216;28;19961;-71
2022/02/15 01:50:17;;;;;;;;;;;;;;;12.18;61.77;101897.53;2057831;28;19961;-72
2022/02/15 01:51:18;;;;;;;;;;;;;;;12.18;61.77;101897.53;2059425;28;19937;-71
2022/02/15 01:52:21;;;;;;;;;;;;;;;12.17;61.84;101898.38;2056946;28;19922;-72
2022/02/15 01:53:23;;;;;;;;;;;;;;;12.16;61.76;101897.47;2056807;28;20327;-71
2022/02/15 01:54:31;;;;;;;;;;;;;;;12.13;61.75;101896.50;2060187;28;19928;-71
2022/02/15 01:55:36;;;;;;;;;;;;;;;12.14;61.75;101900.97;2072267;28;19921;-71
2022/02/15 01:56:40;;;;;;;;;;;;;;;12.12;61.73;101903.56;2064811;28;19948;-71
2022/02/15 01:57:43;;;;;;;;;;;;;;;12.10;61.73;101905.25;2056479;28;20278;-71
2022/02/15 01:58:55;;;;;;;;;;;;;;;12.09;61.80;101899.91;2065489;28;19964;-71
2022/02/15 01:59:57;;;;;;;;;;;;;;;12.08;61.80;101898.16;2068657;28;19963;-71
2022/02/15 02:01:02;;;;;;;;;;;;;;;12.07;61.88;101905.19;2056043;28;19965;-72
2022/02/15 02:02:14;;;;;;;;;;;;;;;12.07;61.94;101912.22;2058234;28;20044;-71
2022/02/15 02:03:18;;;;;;;;;;;;;;;12.06;61.96;101905.13;2064611;28;20012;-71
2022/02/15 02:05:50;;;;;;;;;;;;;;;12.06;61.98;101906.03;2066734;28;19960;-71
2022/02/15 02:06:57;;;;;;;;;;;;;;;12.07;61.84;101909.59;2064902;28;19922;-71
2022/02/15 02:08:02;;;;;;;;;;;;;;;12.04;61.99;101907.75;2056469;28;19922;-73
2022/02/15 02:09:07;;;;;;;;;;;;;;;12.03;62.08;101903.28;2065022;28;20042;-72
2022/02/15 02:10:12;;;;;;;;;;;;;;;12.03;61.97;101902.41;2064734;28;19977;-71
2022/02/15 02:11:14;;;;;;;;;;;;;;;12.02;62.09;101905.88;2057277;28;20266;-71
2022/02/15 02:12:23;;;;;;;;;;;;;;;12.01;62.06;101902.38;2058115;28;20028;-71
2022/02/15 02:13:30;;;;;;;;;;;;;;;12.02;62.04;101905.88;2057077;28;19922;-72
2022/02/15 02:14:33;;;;;;;;;;;;;;;12.02;62.05;101912.06;2056001;28;20357;-72
2022/02/15 02:15:36;;;;;;;;;;;;;;;12.01;62.08;101906.78;2046350;28;19922;-72
2022/02/15 02:17:01;;;;;;;;;;;;;;;12.01;62.18;101899.72;2060824;28;20358;-72
2022/02/15 02:18:06;;;;;;;;;;;;;;;12.02;62.15;101906.78;2065179;28;19971;-71
2022/02/15 02:19:09;;;;;;;;;;;;;;;12.03;62.09;101907.69;2065180;28;20379;-72
2022/02/15 02:20:10;;;;;;;;;;;;;;;12.04;62.06;101899.81;2056395;28;19969;-72
2022/02/15 02:21:14;;;;;;;;;;;;;;;12.07;62.07;101909.59;2064925;28;20004;-72
2022/02/15 02:22:17;;;;;;;;;;;;;;;12.07;62.21;101906.94;2064713;28;20271;-72
2022/02/15 02:23:20;;;;;;;;;;;;;;;12.08;62.19;101908.75;2048624;28;19928;-71
2022/02/15 02:24:23;;;;;;;;;;;;;;;12.09;62.11;101905.22;2049714;28;19954;-71
2022/02/15 02:25:28;;;;;;;;;;;;;;;12.11;62.05;101906.16;2058681;28;19921;-72
2022/02/15 02:26:33;;;;;;;;;;;;;;;12.12;62.00;101908.84;2072776;28;20304;-72
2022/02/15 02:27:35;;;;;;;;;;;;;;;12.13;61.99;101901.81;2071573;28;19936;-72
2022/02/15 02:28:37;;;;;;;;;;;;;;;12.14;62.04;101906.25;2072989;28;20336;-71
2022/02/15 02:29:39;;;;;;;;;;;;;;;12.13;62.00;101908.00;2080196;28;20384;-71
2022/02/15 02:30:41;;;;;;;;;;;;;;;12.16;62.02;101912.47;2072483;28;19922;-71
2022/02/15 02:31:43;;;;;;;;;;;;;;;12.16;62.05;101904.53;2072267;28;19921;-71
2022/02/15 02:32:48;;;;;;;;;;;;;;;12.16;61.96;101908.06;2072500;28;19921;-71
2022/02/15 02:33:50;;;;;;;;;;;;;;;12.17;62.03;101907.22;2064776;28;19930;-71
2022/02/15 02:34:53;;;;;;;;;;;;;;;12.18;62.10;101906.38;2072739;28;19921;-71
2022/02/15 02:35:59;;;;;;;;;;;;;;;12.19;62.11;101901.97;2071775;28;20309;-73
2022/02/15 02:37:02;;;;;;;;;;;;;;;12.20;62.18;101903.78;2064589;28;20251;-71
2022/02/15 02:38:05;;;;;;;;;;;;;;;12.22;62.14;101902.03;2072406;28;19964;-71
2022/02/15 02:39:06;;;;;;;;;;;;;;;12.21;62.15;101897.59;2072263;28;19922;-71
2022/02/15 02:40:10;;;;;;;;;;;;;;;12.22;62.26;101904.69;2072231;28;19921;-71
2022/02/15 02:41:13;;;;;;;;;;;;;;;12.22;62.22;101902.03;2064368;28;20366;-71
2022/02/15 02:42:17;;;;;;;;;;;;;;;12.21;62.09;101905.53;2064346;28;20289;-71
2022/02/15 02:43:19;;;;;;;;;;;;;;;12.19;62.26;101907.28;2080057;28;19976;-71
2022/02/15 02:44:22;;;;;;;;;;;;;;;12.18;62.26;101914.31;2064438;28;19972;-71
2022/02/15 02:45:25;;;;;;;;;;;;;;;12.15;62.30;101906.28;2064897;28;19925;-71
2022/02/15 02:46:29;;;;;;;;;;;;;;;12.12;62.38;101903.56;2065047;28;20397;-71
2022/02/15 02:47:37;;;;;;;;;;;;;;;12.11;62.42;101904.41;2064916;28;19922;-71
2022/02/15 02:48:41;;;;;;;;;;;;;;;12.10;62.40;101901.72;2064299;28;19922;-71
2022/02/15 02:49:43;;;;;;;;;;;;;;;12.08;62.54;101909.59;2073006;28;20023;-71
2022/02/15 02:50:44;;;;;;;;;;;;;;;12.08;62.48;101908.75;2080684;28;19928;-71
2022/02/15 02:51:47;;;;;;;;;;;;;;;12.07;62.53;101915.78;2064313;28;20294;-72
2022/02/15 02:52:50;;;;;;;;;;;;;;;12.06;62.52;101910.44;2064739;28;19922;-72
2022/02/15 02:53:58;;;;;;;;;;;;;;;12.04;62.47;101915.69;2064460;28;19975;-71
2022/02/15 02:55:01;;;;;;;;;;;;;;;12.03;62.57;101919.16;2064380;28;19926;-72
2022/02/15 02:56:04;;;;;;;;;;;;;;;12.02;62.53;101908.53;2064110;28;19921;-72
2022/02/15 02:57:08;;;;;;;;;;;;;;;12.01;62.62;101920.91;2072781;28;19921;-72
2022/02/15 02:58:10;;;;;;;;;;;;;;;12.01;62.57;101914.72;2064415;28;19926;-73
2022/02/15 02:59:12;;;;;;;;;;;;;;;11.98;62.59;101913.75;2064608;28;19921;-72
2022/02/15 03:00:15;;;;;;;;;;;;;;;11.98;62.54;101924.34;2071843;28;19921;-72
2022/02/15 03:01:50;;;;;;;;;;;;;;;11.97;62.65;101919.00;2055664;28;19965;-71
2022/02/15 03:02:53;;;;;;;;;;;;;;;11.96;62.66;101915.47;2080778;28;20365;-72
2022/02/15 03:03:54;;;;;;;;;;;;;;;11.97;62.67;101919.00;2080493;28;19952;-72
2022/02/15 03:04:56;;;;;;;;;;;;;;;11.98;62.68;101919.06;2064447;28;19933;-71
2022/02/15 03:05:58;;;;;;;;;;;;;;;12.01;62.60;101912.06;2073248;28;19931;-71
2022/02/15 03:07:00;;;;;;;;;;;;;;;12.03;62.55;101920.91;2072439;28;19932;-72
2022/02/15 03:08:05;;;;;;;;;;;;;;;12.04;62.58;101917.44;2064450;28;20015;-72
2022/02/15 03:09:06;;;;;;;;;;;;;;;12.04;62.52;101917.44;2064390;28;19922;-71
2022/02/15 03:10:09;;;;;;;;;;;;;;;12.04;62.66;101912.13;2064194;28;20273;-71
2022/02/15 03:11:12;;;;;;;;;;;;;;;12.04;62.56;101910.38;2066157;28;19922;-71
2022/02/15 03:12:19;;;;;;;;;;;;;;;12.04;62.72;101914.78;2066442;28;19987;-72
2022/02/15 03:13:22;;;;;;;;;;;;;;;12.04;62.83;101917.44;2074003;28;20265;-71
2022/02/15 03:14:25;;;;;;;;;;;;;;;12.03;62.79;101919.16;2065795;28;19922;-71
2022/02/15 03:15:30;;;;;;;;;;;;;;;12.01;62.80;101918.25;2059206;28;19922;-72
2022/02/15 03:16:37;;;;;;;;;;;;;;;12.01;62.83;101920.00;2066733;28;20017;-71
2022/02/15 03:17:39;;;;;;;;;;;;;;;12.00;62.90;101920.84;2074324;28;20310;-72
2022/02/15 03:18:40;;;;;;;;;;;;;;;11.97;63.02;101914.59;2082297;28;19928;-72
2022/02/15 03:19:46;;;;;;;;;;;;;;;11.96;63.02;101918.09;2072679;28;19944;-72
2022/02/15 03:20:47;;;;;;;;;;;;;;;11.94;63.11;101914.53;2065376;28;19922;-72
2022/02/15 03:21:49;;;;;;;;;;;;;;;11.93;63.07;101925.97;2074143;28;19953;-71
2022/02/15 03:22:51;;;;;;;;;;;;;;;11.91;63.08;101918.81;2074125;28;20308;-72
2022/02/15 03:23:55;;;;;;;;;;;;;;;11.90;63.20;101915.28;2074222;28;19921;-72
2022/02/15 03:24:58;;;;;;;;;;;;;;;11.88;63.13;101924.06;2082036;28;19921;-71
2022/02/15 03:25:59;;;;;;;;;;;;;;;11.87;63.18;101923.16;2081756;28;19957;-73
2022/02/15 03:27:05;;;;;;;;;;;;;;;11.86;63.29;101925.75;2074363;28;20349;-71
2022/02/15 03:28:06;;;;;;;;;;;;;;;11.84;63.34;101923.03;2073789;28;19921;-72
2022/02/15 03:29:10;;;;;;;;;;;;;;;11.83;63.46;101920.34;2065403;28;19929;-71
2022/02/15 03:30:12;;;;;;;;;;;;;;;11.84;63.49;101930.97;2074300;28;19963;-71
2022/02/15 03:31:19;;;;;;;;;;;;;;;11.84;63.44;101925.69;2073937;28;19968;-71
2022/02/15 03:32:27;;;;;;;;;;;;;;;11.83;63.40;101934.47;2066242;28;19922;-72
2022/02/15 03:33:29;;;;;;;;;;;;;;;11.83;63.34;101931.84;2065686;28;19922;-73
2022/02/15 03:34:32;;;;;;;;;;;;;;;11.84;63.35;101935.38;2073985;28;19956;-72
2022/02/15 03:35:33;;;;;;;;;;;;;;;11.83;63.40;101934.47;2065856;28;19977;-72
2022/02/15 03:36:42;;;;;;;;;;;;;;;11.82;63.38;101937.97;2066821;28;19956;-72
2022/02/15 03:37:46;;;;;;;;;;;;;;;11.83;63.36;101938.88;2066290;28;19922;-72
2022/02/15 03:38:48;;;;;;;;;;;;;;;11.81;63.31;101940.59;2065518;28;20039;-72
2022/02/15 03:39:52;;;;;;;;;;;;;;;11.80;63.45;101936.16;2065869;28;19968;-71
2022/02/15 03:43:45;;;;;;;;;;;;;;;11.79;63.36;101935.25;2076481;28;19922;-71
2022/02/15 03:44:53;;;;;;;;;;;;;;;11.79;63.57;101940.53;2073979;28;19925;-71
2022/02/15 03:46:02;;;;;;;;;;;;;;;11.80;63.54;101936.16;2067972;28;19922;-72
2022/02/15 03:47:09;;;;;;;;;;;;;;;11.80;63.54;101942.34;2073962;28;19922;-71
2022/02/15 03:48:13;;;;;;;;;;;;;;;11.80;63.45;101936.16;2066354;28;19996;-71
2022/02/15 03:49:20;;;;;;;;;;;;;;;11.79;63.53;101939.66;2066124;28;20413;-72
2022/02/15 03:50:25;;;;;;;;;;;;;;;11.78;63.60;101940.50;2074028;28;20369;-71
2022/02/15 03:51:27;;;;;;;;;;;;;;;11.77;63.52;101949.28;2071569;28;20029;-72
2022/02/15 03:52:31;;;;;;;;;;;;;;;11.75;63.59;101941.28;2073828;28;19921;-72
2022/02/15 03:53:32;;;;;;;;;;;;;;;11.75;63.59;101949.22;2074318;28;19921;-72
2022/02/15 03:54:35;;;;;;;;;;;;;;;11.74;63.63;101944.81;2073960;28;20348;-72
2022/02/15 03:55:38;;;;;;;;;;;;;;;11.73;63.69;101942.06;2073463;28;19969;-71
2022/02/15 03:56:41;;;;;;;;;;;;;;;11.72;63.42;101951.75;2063191;28;20028;-72
2022/02/15 03:57:43;;;;;;;;;;;;;;;11.71;63.54;101949.06;2066260;28;19998;-72
2022/02/15 03:58:47;;;;;;;;;;;;;;;11.71;63.53;101946.41;2065874;28;19952;-72
2022/02/15 03:59:53;;;;;;;;;;;;;;;11.70;63.56;101948.16;2066352;28;19922;-72
2022/02/15 04:01:02;;;;;;;;;;;;;;;11.69;63.55;101945.47;2068606;28;20012;-73
2022/02/15 04:02:05;;;;;;;;;;;;;;;11.67;63.59;101942.78;2072970;28;20316;-72
2022/02/15 04:03:07;;;;;;;;;;;;;;;11.66;63.53;101941.00;2065327;28;19922;-71
2022/02/15 04:04:11;;;;;;;;;;;;;;;11.65;63.57;101946.22;2065688;28;19927;-72
2022/02/15 04:05:13;;;;;;;;;;;;;;;11.63;63.77;101938.25;2065491;28;20439;-72
2022/02/15 04:06:16;;;;;;;;;;;;;;;11.62;63.57;101947.03;2065402;28;20285;-72
2022/02/15 04:07:18;;;;;;;;;;;;;;;11.62;63.65;101939.09;2063599;28;19960;-71
2022/02/15 04:08:21;;;;;;;;;;;;;;;11.62;63.69;101938.22;2073670;28;19921;-72
2022/02/15 04:09:23;;;;;;;;;;;;;;;11.61;63.61;101933.78;2073822;28;19944;-72
2022/02/15 04:10:26;;;;;;;;;;;;;;;11.62;63.67;101941.72;2066289;28;19925;-72
2022/02/15 04:11:29;;;;;;;;;;;;;;;11.63;63.62;101934.69;2065815;28;20058;-72
2022/02/15 04:12:31;;;;;;;;;;;;;;;11.63;63.59;101935.59;2065185;28;20262;-73
2022/02/15 04:13:33;;;;;;;;;;;;;;;11.64;63.52;101937.41;2065681;28;19929;-72
2022/02/15 04:14:36;;;;;;;;;;;;;;;11.64;63.59;101945.34;2073287;28;19921;-72
2022/02/15 04:15:37;;;;;;;;;;;;;;;11.64;63.53;101947.97;2073322;28;20000;-71
2022/02/15 04:16:40;;;;;;;;;;;;;;;11.64;63.63;101941.78;2063707;28;20009;-71
2022/02/15 04:17:41;;;;;;;;;;;;;;;11.64;63.59;101939.13;2062659;28;19928;-71
2022/02/15 04:18:47;;;;;;;;;;;;;;;11.62;63.67;101943.50;2065125;28;20016;-71
2022/02/15 04:19:50;;;;;;;;;;;;;;;11.63;63.75;101940.88;2066489;28;19937;-72
2022/02/15 04:20:53;;;;;;;;;;;;;;;11.64;63.72;101944.44;2065401;28;20386;-72
2022/02/15 04:21:56;;;;;;;;;;;;;;;11.64;63.75;101940.03;2065414;28;20020;-71
2022/02/15 04:22:58;;;;;;;;;;;;;;;11.65;63.79;101944.50;2064589;28;19929;-71
2022/02/15 04:24:00;;;;;;;;;;;;;;;11.65;63.75;101939.19;2064983;28;20000;-72
2022/02/15 04:25:01;;;;;;;;;;;;;;;11.66;63.78;101948.03;2065467;28;20337;-71
2022/02/15 04:26:04;;;;;;;;;;;;;;;11.66;63.93;101946.28;2073352;28;20277;-71
2022/02/15 04:27:15;;;;;;;;;;;;;;;11.68;63.79;101943.69;2065714;28;19921;-72
2022/02/15 04:28:16;;;;;;;;;;;;;;;11.69;63.78;101940.16;2059234;28;19993;-72
2022/02/15 04:29:19;;;;;;;;;;;;;;;11.69;63.69;101943.72;2065507;28;20378;-72
2022/02/15 04:30:27;;;;;;;;;;;;;;;11.71;63.91;101954.34;2066098;28;19922;-72
2022/02/15 04:31:30;;;;;;;;;;;;;;;11.72;63.83;101948.22;2073204;28;19921;-72
2022/02/15 04:32:31;;;;;;;;;;;;;;;11.72;63.88;101959.69;2073293;28;20332;-71
2022/02/15 04:33:35;;;;;;;;;;;;;;;11.73;63.96;101956.19;2073548;28;19928;-71
2022/02/15 04:34:37;;;;;;;;;;;;;;;11.74;63.91;101958.03;2081621;28;19921;-71
2022/02/15 04:35:41;;;;;;;;;;;;;;;11.75;63.88;101957.16;2073436;28;20291;-72
2022/02/15 04:36:44;;;;;;;;;;;;;;;11.76;63.96;101956.31;2073888;28;19921;-72
2022/02/15 04:37:45;;;;;;;;;;;;;;;11.76;63.93;101958.06;2073133;28;19921;-72
2022/02/15 04:38:48;;;;;;;;;;;;;;;11.76;64.08;101958.97;2065525;28;19926;-71
2022/02/15 04:39:49;;;;;;;;;;;;;;;11.78;64.06;101961.66;2057344;28;20024;-72
2022/02/15 04:40:51;;;;;;;;;;;;;;;11.79;64.14;101967.00;2057583;28;20418;-71
2022/02/15 04:41:59;;;;;;;;;;;;;;;11.81;64.03;101964.41;2065917;28;20008;-74
2022/02/15 04:43:03;;;;;;;;;;;;;;;11.81;64.03;101962.66;2064647;28;20302;-72
2022/02/15 04:44:06;;;;;;;;;;;;;;;11.82;64.01;101963.53;2065241;28;19922;-72
2022/02/15 04:45:12;;;;;;;;;;;;;;;11.83;63.98;101971.50;2073859;28;19943;-72
2022/02/15 04:46:22;;;;;;;;;;;;;;;11.84;63.98;101970.66;2073768;28;19926;-72
2022/02/15 04:47:25;;;;;;;;;;;;;;;11.85;64.10;101969.81;2072979;28;19927;-72
2022/02/15 04:48:28;;;;;;;;;;;;;;;11.85;64.25;101968.94;2060906;28;20004;-72
2022/02/15 04:49:32;;;;;;;;;;;;;;;11.87;64.30;101968.13;2064789;28;19921;-72
2022/02/15 04:50:34;;;;;;;;;;;;;;;11.89;64.23;101969.06;2065959;28;19922;-72
2022/02/15 04:51:41;;;;;;;;;;;;;;;11.91;64.22;101971.75;2073654;28;20262;-72
2022/02/15 04:52:44;;;;;;;;;;;;;;;11.91;64.24;101972.66;2071885;28;20004;-72
2022/02/15 04:53:54;;;;;;;;;;;;;;;11.92;64.16;101970.91;2064604;28;20029;-72
2022/02/15 04:54:55;;;;;;;;;;;;;;;11.91;64.24;101963.81;2073493;28;20285;-72
2022/02/15 04:56:00;;;;;;;;;;;;;;;11.92;64.23;101971.81;2073771;28;19928;-72
2022/02/15 04:57:01;;;;;;;;;;;;;;;11.93;64.16;101973.59;2073455;28;19929;-72
2022/02/15 04:58:05;;;;;;;;;;;;;;;11.95;64.17;101971.88;2064444;28;19921;-72
2022/02/15 04:59:18;;;;;;;;;;;;;;;11.97;64.25;101972.81;2066450;28;19922;-72
2022/02/15 05:00:19;;;;;;;;;;;;;;;12.00;64.19;101984.38;2073413;28;19929;-72
2022/02/15 05:01:43;;;;;;;;;;;;;;;12.01;64.25;101976.47;2067930;28;19922;-72
2022/02/15 05:02:50;;;;;;;;;;;;;;;12.03;64.36;101979.16;2066761;28;19932;-72
2022/02/15 05:03:53;;;;;;;;;;;;;;;12.02;64.34;101975.59;2071792;28;19926;-71
2022/02/15 05:04:55;;;;;;;;;;;;;;;12.04;64.45;101979.19;2063461;28;19985;-71
2022/02/15 05:06:20;;;;;;;;;;;;;;;12.07;64.39;101981.03;2068815;28;20396;-72
2022/02/15 05:07:23;;;;;;;;;;;;;;;12.08;64.40;101985.50;2065448;28;19957;-72
2022/02/15 05:08:27;;;;;;;;;;;;;;;12.08;64.39;101981.06;2065234;28;19925;-72
2022/02/15 05:09:38;;;;;;;;;;;;;;;12.10;64.45;101982.03;2073064;28;20388;-73
2022/02/15 05:11:01;;;;;;;;;;;;;;;12.10;64.44;101982.03;2060908;28;19926;-71
2022/02/15 05:12:10;;;;;;;;;;;;;;;12.11;64.52;101980.28;2081568;28;20052;-72
2022/02/15 05:13:15;;;;;;;;;;;;;;;12.11;64.45;101985.56;2070292;28;20020;-72
2022/02/15 05:14:26;;;;;;;;;;;;;;;12.10;64.49;101984.66;2067061;28;19921;-71
2022/02/15 05:15:29;;;;;;;;;;;;;;;12.13;64.50;101994.47;2066112;28;20021;-72
2022/02/15 05:16:42;;;;;;;;;;;;;;;12.15;64.49;101996.28;2066434;28;19921;-72
2022/02/15 05:17:56;;;;;;;;;;;;;;;12.17;64.59;101993.69;2057059;28;19922;-72
2022/02/15 05:18:57;;;;;;;;;;;;;;;12.16;64.66;101998.06;2074119;28;19921;-72
2022/02/15 05:20:04;;;;;;;;;;;;;;;12.15;64.69;101990.97;2069706;28;19926;-72
2022/02/15 05:21:05;;;;;;;;;;;;;;;12.15;64.68;101996.28;2071365;28;20005;-72
2022/02/15 05:22:10;;;;;;;;;;;;;;;12.16;64.76;101999.81;2080017;28;19921;-72
2022/02/15 05:23:33;;;;;;;;;;;;;;;12.16;64.63;102000.72;2075892;28;20318;-71
2022/02/15 05:24:34;;;;;;;;;;;;;;;12.16;64.73;102000.72;2079054;28;19921;-72
2022/02/15 05:25:41;;;;;;;;;;;;;;;12.17;64.62;101999.88;2073018;28;19921;-71
2022/02/15 05:26:52;;;;;;;;;;;;;;;12.18;64.71;102004.31;2066878;28;19921;-71
2022/02/15 05:28:18;;;;;;;;;;;;;;;12.19;64.71;102010.50;2066356;28;19928;-72
2022/02/15 05:29:20;;;;;;;;;;;;;;;12.18;64.74;102001.69;2073486;28;19929;-71
2022/02/15 05:30:25;;;;;;;;;;;;;;;12.16;64.74;102007.75;2074377;28;19924;-72
2022/02/15 05:31:47;;;;;;;;;;;;;;;12.15;64.82;102009.50;2075672;28;19996;-71
2022/02/15 05:32:49;;;;;;;;;;;;;;;12.13;64.81;102000.66;2081674;28;19930;-71